Time;durP1;ratioP1;P1;durP2;ratioP2;P2;SDS_P1;SDS_P2;PMS_P1;PMS_P2;Temp;Humidity;BMP_temperature;BMP_pressure;BME280_temperature;BME280_humidity;BME280_pressure;Samples;Min_cycle;Max_cycle;Signal;HPM_P1;HPM_P2
2022/04/29 00:00:31;;;;;;;6.20;5.60;;;7.10;99.90;;;;;;6304456;22;20505;-69
2022/04/29 00:02:58;;;;;;;6.57;5.88;;;7.10;99.90;;;;;;6304537;22;20808;-69
2022/04/29 00:05:24;;;;;;;7.72;5.75;;;7.00;99.90;;;;;;6304373;22;20531;-69
2022/04/29 00:07:52;;;;;;;8.57;6.70;;;7.10;99.90;;;;;;6304035;22;20178;-69
2022/04/29 00:10:20;;;;;;;6.70;6.10;;;7.10;99.90;;;;;;6303283;22;20167;-69
2022/04/29 00:12:48;;;;;;;7.07;5.90;;;7.10;99.90;;;;;;6304607;22;20174;-69
2022/04/29 00:15:17;;;;;;;6.82;6.22;;;7.00;99.90;;;;;;6304332;22;20540;-69
2022/04/29 00:17:44;;;;;;;6.95;6.20;;;7.00;99.90;;;;;;6304329;22;20178;-68
2022/04/29 00:20:11;;;;;;;8.48;6.35;;;6.90;99.90;;;;;;6303944;22;20261;-69
2022/04/29 00:22:38;;;;;;;7.70;7.00;;;6.90;99.90;;;;;;6304027;22;20222;-69
2022/04/29 00:25:08;;;;;;;6.40;5.68;;;6.90;99.90;;;;;;6304283;22;20198;-69
2022/04/29 00:27:35;;;;;;;7.55;6.85;;;6.90;99.90;;;;;;6304224;22;20179;-69
2022/04/29 00:30:02;;;;;;;7.50;6.50;;;6.80;99.90;;;;;;6303661;22;20488;-69
2022/04/29 00:32:29;;;;;;;7.43;6.65;;;6.80;99.90;;;;;;6304428;22;20167;-69
2022/04/29 00:34:56;;;;;;;7.72;6.95;;;6.70;99.90;;;;;;6304191;22;20202;-69
2022/04/29 00:37:22;;;;;;;7.18;6.50;;;6.70;99.90;;;;;;6304528;22;20175;-68
2022/04/29 00:39:49;;;;;;;6.82;6.13;;;6.60;99.90;;;;;;6303324;22;20523;-68
2022/04/29 00:42:19;;;;;;;7.65;5.68;;;6.60;99.90;;;;;;6304360;22;20199;-70
2022/04/29 00:44:46;;;;;;;5.95;5.45;;;6.60;99.90;;;;;;6304113;22;20191;-69
2022/04/29 00:47:15;;;;;;;6.85;6.15;;;6.50;99.90;;;;;;6304124;22;20183;-69
2022/04/29 00:49:43;;;;;;;6.78;6.18;;;6.50;99.90;;;;;;6303440;22;20175;-69
2022/04/29 00:52:13;;;;;;;8.32;6.38;;;6.50;99.90;;;;;;6305378;22;20167;-68
2022/04/29 00:54:43;;;;;;;7.15;6.50;;;6.50;99.90;;;;;;6305832;22;20196;-69
2022/04/29 00:57:25;;;;;;;7.50;6.68;;;6.50;99.90;;;;;;6306325;22;20510;-69
2022/04/29 00:59:57;;;;;;;7.35;6.65;;;6.40;99.90;;;;;;6305300;22;20168;-69
2022/04/29 01:02:24;;;;;;;8.73;6.05;;;6.40;99.90;;;;;;6306348;22;20176;-69
2022/04/29 01:04:59;;;;;;;7.20;6.50;;;6.40;99.90;;;;;;6306133;22;20195;-68
2022/04/29 01:07:26;;;;;;;7.35;6.50;;;6.40;99.90;;;;;;6306165;22;20159;-69
2022/04/29 01:09:53;;;;;;;8.38;6.53;;;6.30;99.90;;;;;;6304578;22;20187;-69
2022/04/29 01:12:21;;;;;;;7.20;6.10;;;6.30;99.90;;;;;;6306162;22;20620;-69
2022/04/29 01:14:49;;;;;;;8.02;7.32;;;6.30;99.90;;;;;;6305956;22;20195;-69
2022/04/29 01:17:15;;;;;;;8.75;6.18;;;6.30;99.90;;;;;;6305455;22;20252;-69
2022/04/29 01:19:42;;;;;;;8.98;6.63;;;6.30;99.90;;;;;;6305205;22;20178;-70
2022/04/29 01:22:11;;;;;;;7.30;6.60;;;6.30;99.90;;;;;;6305734;22;20201;-70
2022/04/29 01:24:38;;;;;;;7.82;7.10;;;6.20;99.90;;;;;;6305731;22;20559;-69
2022/04/29 01:27:11;;;;;;;7.43;6.72;;;6.20;99.90;;;;;;6305926;22;20521;-70
2022/04/29 01:29:40;;;;;;;7.65;6.30;;;6.20;99.90;;;;;;6305070;22;20208;-69
2022/04/29 01:32:09;;;;;;;6.60;5.97;;;6.10;99.90;;;;;;6305919;22;20234;-69
2022/04/29 01:34:36;;;;;;;7.80;7.00;;;6.10;99.90;;;;;;6305556;22;20195;-69
2022/04/29 01:37:03;;;;;;;7.63;6.57;;;6.00;99.90;;;;;;6305903;22;20175;-70
2022/04/29 01:39:31;;;;;;;7.70;6.97;;;6.00;99.90;;;;;;6305113;22;20178;-69
2022/04/29 01:41:57;;;;;;;10.20;7.13;;;6.00;99.90;;;;;;6306145;22;20182;-69
2022/04/29 01:44:24;;;;;;;7.20;6.50;;;5.90;99.90;;;;;;6306527;22;20198;-69
2022/04/29 01:46:51;;;;;;;7.07;6.43;;;5.90;99.90;;;;;;6305333;22;20674;-70
2022/04/29 01:49:17;;;;;;;7.85;7.15;;;5.90;99.90;;;;;;6305085;22;20171;-69
2022/04/29 01:51:44;;;;;;;8.32;6.97;;;6.00;99.90;;;;;;6305384;22;20179;-69
2022/04/29 01:54:11;;;;;;;7.15;6.53;;;5.90;99.90;;;;;;6305695;22;20585;-70
2022/04/29 01:56:40;;;;;;;7.53;6.53;;;5.90;99.90;;;;;;6305306;22;20257;-69
2022/04/29 01:59:07;;;;;;;8.20;7.40;;;5.90;99.90;;;;;;6304905;22;20171;-69
2022/04/29 02:01:35;;;;;;;8.38;7.68;;;5.80;99.90;;;;;;6305000;22;20176;-69
2022/04/29 02:04:02;;;;;;;8.23;7.43;;;5.80;99.90;;;;;;6305213;22;20210;-69
2022/04/29 02:06:28;;;;;;;8.98;8.05;;;5.80;99.90;;;;;;6304910;22;20175;-69
2022/04/29 02:08:55;;;;;;;8.02;7.22;;;5.70;99.90;;;;;;6301460;22;20653;-90
2022/04/29 02:11:22;;;;;;;8.90;7.25;;;5.80;99.90;;;;;;6314836;22;20195;-70
2022/04/29 02:13:50;;;;;;;8.32;7.13;;;5.70;99.90;;;;;;6305557;22;20194;-70
2022/04/29 02:16:18;;;;;;;7.93;7.20;;;5.70;99.90;;;;;;6305496;22;20555;-70
2022/04/29 02:18:44;;;;;;;8.65;7.78;;;5.70;99.90;;;;;;6304824;22;20232;-70
2022/04/29 02:21:11;;;;;;;7.78;6.97;;;5.60;99.90;;;;;;6304945;22;20666;-70
2022/04/29 02:23:38;;;;;;;8.20;7.45;;;5.70;99.90;;;;;;6305291;22;20206;-70
2022/04/29 02:26:05;;;;;;;8.68;7.78;;;5.60;99.90;;;;;;6305381;22;20175;-70
2022/04/29 02:28:32;;;;;;;8.63;7.60;;;5.60;99.90;;;;;;6304568;22;20171;-70
2022/04/29 02:31:00;;;;;;;9.75;7.80;;;5.60;99.90;;;;;;6305406;22;20175;-70
2022/04/29 02:33:28;;;;;;;8.52;7.72;;;5.50;99.90;;;;;;6305487;22;20201;-70
2022/04/29 02:35:55;;;;;;;9.02;8.18;;;5.50;99.90;;;;;;6305109;22;20562;-70
2022/04/29 02:38:22;;;;;;;7.95;7.15;;;5.50;99.90;;;;;;6304735;22;20178;-70
2022/04/29 02:40:50;;;;;;;8.50;7.70;;;5.50;99.90;;;;;;6305278;22;20171;-71
2022/04/29 02:43:17;;;;;;;9.80;8.07;;;5.50;99.90;;;;;;6305015;22;20246;-70
2022/04/29 02:45:46;;;;;;;8.88;8.02;;;5.50;99.90;;;;;;6304879;22;20186;-70
2022/04/29 02:48:15;;;;;;;8.80;7.95;;;5.50;99.90;;;;;;6304563;22;20499;-70
2022/04/29 02:50:41;;;;;;;10.27;8.75;;;5.40;99.90;;;;;;6305102;22;20171;-70
2022/04/29 02:53:08;;;;;;;10.35;9.25;;;5.40;99.90;;;;;;6305140;22;20167;-70
2022/04/29 02:55:35;;;;;;;9.82;8.63;;;5.40;99.90;;;;;;6304877;22;20195;-70
2022/04/29 02:58:01;;;;;;;13.40;8.90;;;5.40;99.90;;;;;;6304170;22;20197;-70
2022/04/29 03:00:28;;;;;;;10.20;8.48;;;5.40;99.90;;;;;;6305320;22;20171;-70
2022/04/29 03:02:55;;;;;;;10.00;9.00;;;5.30;99.90;;;;;;6304889;22;20187;-70
2022/04/29 03:05:23;;;;;;;9.02;7.85;;;5.30;99.90;;;;;;6304944;22;20520;-70
2022/04/29 03:07:50;;;;;;;9.93;8.93;;;5.20;99.90;;;;;;6304963;22;20175;-70
2022/04/29 03:10:17;;;;;;;9.32;8.43;;;5.20;99.90;;;;;;6305398;22;20202;-70
2022/04/29 03:12:44;;;;;;;9.80;8.10;;;5.20;99.90;;;;;;6307963;22;20202;-70
2022/04/29 03:15:17;;;;;;;8.93;8.02;;;5.20;99.90;;;;;;6304063;22;20201;-70
2022/04/29 03:20:30;;;;;;;8.73;7.80;;;5.10;99.90;;;;;;6304612;22;20271;-69
2022/04/29 03:22:57;;;;;;;9.10;8.05;;;5.10;99.90;;;;;;6304848;22;20195;-70
2022/04/29 03:25:24;;;;;;;8.70;7.90;;;5.10;99.90;;;;;;6304541;22;20195;-70
2022/04/29 03:27:51;;;;;;;10.27;9.07;;;5.10;99.90;;;;;;6304682;22;20181;-70
2022/04/29 03:30:17;;;;;;;8.95;8.10;;;5.10;99.90;;;;;;6303189;22;20704;-70
2022/04/29 03:32:52;;;;;;;9.32;8.43;;;5.10;99.90;;;;;;6304449;22;20175;-69
2022/04/29 03:35:18;;;;;;;9.55;8.57;;;5.10;99.90;;;;;;6304205;22;20197;-70
2022/04/29 03:37:48;;;;;;;8.68;7.88;;;5.10;99.90;;;;;;6305035;22;20186;-69
2022/04/29 03:40:15;;;;;;;8.80;8.00;;;5.00;99.90;;;;;;6304168;22;20217;-69
2022/04/29 03:42:42;;;;;;;9.13;8.13;;;5.10;99.90;;;;;;6304541;22;20175;-69
2022/04/29 03:45:10;;;;;;;9.20;8.30;;;5.10;99.90;;;;;;6304668;22;20190;-69
2022/04/29 03:47:37;;;;;;;11.45;8.65;;;5.00;99.90;;;;;;6304453;22;20176;-70
2022/04/29 03:50:05;;;;;;;9.32;8.32;;;5.00;99.90;;;;;;6303952;22;20182;-70
2022/04/29 03:52:32;;;;;;;8.45;7.65;;;5.00;99.90;;;;;;6303943;22;20182;-71
2022/04/29 03:55:00;;;;;;;8.90;8.00;;;5.00;99.90;;;;;;6303186;22;20566;-71
2022/04/29 03:57:27;;;;;;;11.60;8.30;;;5.00;99.90;;;;;;6303385;22;20661;-71
2022/04/29 03:59:54;;;;;;;10.48;8.70;;;5.00;99.90;;;;;;6302405;22;20171;-71
2022/04/29 04:02:20;;;;;;;9.80;8.35;;;5.00;99.90;;;;;;6303455;22;20178;-72
2022/04/29 04:04:47;;;;;;;9.10;7.68;;;5.00;99.90;;;;;;6302690;22;20199;-71
2022/04/29 04:07:14;;;;;;;9.20;8.23;;;5.00;99.90;;;;;;6302640;22;20648;-71
2022/04/29 04:09:40;;;;;;;9.07;7.97;;;5.00;99.90;;;;;;6302676;22;20178;-71
2022/04/29 04:12:10;;;;;;;11.40;8.60;;;5.00;99.90;;;;;;6302648;22;20183;-71
2022/04/29 04:14:37;;;;;;;8.90;7.90;;;5.00;99.90;;;;;;6303011;22;20191;-71
2022/04/29 04:17:04;;;;;;;9.80;8.07;;;5.00;99.90;;;;;;6302995;22;20175;-71
2022/04/29 04:19:31;;;;;;;9.25;7.47;;;5.00;99.90;;;;;;6302392;22;20179;-71
2022/04/29 04:21:58;;;;;;;9.30;7.80;;;5.00;99.90;;;;;;6302948;22;20178;-72
2022/04/29 04:24:25;;;;;;;13.35;8.02;;;5.00;99.90;;;;;;6302664;22;20203;-71
2022/04/29 04:26:51;;;;;;;9.07;8.18;;;5.10;99.90;;;;;;6304812;22;20178;-71
2022/04/29 04:29:19;;;;;;;9.20;7.55;;;5.10;99.90;;;;;;6305457;22;20182;-71
2022/04/29 04:31:47;;;;;;;10.23;8.07;;;5.10;99.90;;;;;;6306217;22;20525;-70
2022/04/29 04:36:58;;;;;;;10.43;8.43;;;5.20;99.90;;;;;;6306638;22;20216;-71
2022/04/29 04:39:25;;;;;;;8.93;8.02;;;5.20;99.90;;;;;;6305947;22;20537;-71
2022/04/29 04:41:52;;;;;;;8.95;8.15;;;5.20;99.90;;;;;;6306685;22;20171;-71
2022/04/29 04:44:20;;;;;;;8.90;8.10;;;5.30;99.90;;;;;;6306108;22;20531;-71
2022/04/29 04:46:47;;;;;;;11.00;7.57;;;5.40;99.90;;;;;;6306636;22;20171;-71
2022/04/29 04:49:15;;;;;;;14.65;8.90;;;5.40;99.90;;;;;;6305056;22;20213;-71
2022/04/29 04:51:42;;;;;;;9.25;8.25;;;5.50;99.90;;;;;;6316592;22;20217;-70
2022/04/29 04:54:09;;;;;;;8.57;7.68;;;5.60;99.90;;;;;;6306176;22;20191;-71
2022/04/29 04:56:35;;;;;;;9.40;8.40;;;5.60;99.90;;;;;;6306435;22;20201;-71
2022/04/29 04:59:02;;;;;;;9.35;8.13;;;5.70;99.90;;;;;;6305509;22;20175;-71
2022/04/29 05:01:30;;;;;;;9.60;8.63;;;5.80;99.90;;;;;;6306835;22;20178;-71
2022/04/29 05:03:57;;;;;;;9.75;8.85;;;5.90;99.90;;;;;;6306270;22;20198;-71
2022/04/29 05:06:24;;;;;;;10.10;8.70;;;6.10;99.90;;;;;;6306536;22;20171;-71
2022/04/29 05:08:50;;;;;;;9.75;8.85;;;6.20;99.90;;;;;;6306191;22;20175;-71
2022/04/29 05:11:17;;;;;;;9.85;8.85;;;6.30;99.90;;;;;;6305906;22;20202;-71
2022/04/29 05:13:44;;;;;;;9.35;8.30;;;6.40;99.90;;;;;;6305991;22;20187;-71
2022/04/29 05:16:11;;;;;;;9.68;8.80;;;6.50;99.90;;;;;;6306226;22;20184;-71
2022/04/29 05:18:39;;;;;;;10.05;8.93;;;6.70;99.90;;;;;;6305460;22;20230;-70
2022/04/29 05:21:05;;;;;;;9.60;8.38;;;6.80;99.90;;;;;;6306158;22;20183;-71
2022/04/29 05:23:34;;;;;;;8.80;7.88;;;6.80;99.90;;;;;;6306032;22;20511;-70
2022/04/29 05:26:01;;;;;;;9.18;8.25;;;6.90;99.90;;;;;;6305881;22;20197;-71
2022/04/29 05:28:27;;;;;;;9.82;8.82;;;7.10;99.90;;;;;;6305544;22;20175;-70
2022/04/29 05:30:54;;;;;;;9.30;8.35;;;7.20;99.90;;;;;;6305930;22;20670;-71
2022/04/29 05:33:21;;;;;;;8.77;7.90;;;7.30;99.90;;;;;;6305830;22;20175;-71
2022/04/29 05:35:49;;;;;;;10.52;8.15;;;7.40;99.90;;;;;;6305937;22;20179;-70
2022/04/29 05:38:16;;;;;;;11.82;8.05;;;7.50;99.90;;;;;;6305050;22;20504;-70
2022/04/29 05:43:28;;;;;;;9.32;8.43;;;7.80;99.90;;;;;;6305553;22;20158;-70
2022/04/29 05:45:55;;;;;;;10.63;8.50;;;7.90;99.90;;;;;;6305887;22;20183;-70
2022/04/29 05:48:22;;;;;;;10.93;8.57;;;8.00;99.90;;;;;;6305257;22;20517;-70
2022/04/29 05:50:50;;;;;;;8.60;7.78;;;8.10;99.90;;;;;;6306146;22;20182;-70
2022/04/29 05:53:17;;;;;;;9.30;7.88;;;8.30;99.90;;;;;;6305448;22;20639;-70
2022/04/29 05:55:44;;;;;;;8.77;8.02;;;8.40;99.90;;;;;;6304019;22;20281;-70
2022/04/29 05:58:11;;;;;;;8.95;8.05;;;8.50;99.90;;;;;;6305534;22;20172;-69
2022/04/29 06:00:38;;;;;;;9.65;8.05;;;8.60;99.90;;;;;;6305558;22;20171;-70
2022/04/29 06:03:04;;;;;;;11.90;8.70;;;8.80;99.90;;;;;;6305781;22;20179;-70
2022/04/29 06:05:31;;;;;;;9.32;8.43;;;8.90;99.90;;;;;;6311539;22;20517;-70
2022/04/29 06:07:59;;;;;;;10.65;8.95;;;9.10;99.90;;;;;;6305581;22;20175;-71
2022/04/29 06:10:26;;;;;;;13.85;10.07;;;9.30;99.90;;;;;;6305410;22;20171;-70
2022/04/29 06:12:52;;;;;;;9.98;8.70;;;9.50;99.90;;;;;;6305334;22;20654;-70
2022/04/29 06:15:19;;;;;;;10.05;9.05;;;9.70;99.90;;;;;;6305353;22;20210;-70
2022/04/29 06:17:46;;;;;;;13.00;9.23;;;9.80;99.90;;;;;;6305593;22;20178;-71
2022/04/29 06:20:13;;;;;;;10.35;8.35;;;9.90;99.90;;;;;;6304427;22;20262;-70
2022/04/29 06:22:44;;;;;;;9.52;8.13;;;10.10;99.90;;;;;;6305617;22;20171;-70
2022/04/29 06:25:12;;;;;;;12.07;8.88;;;10.20;99.90;;;;;;6304998;22;20691;-71
2022/04/29 06:27:39;;;;;;;12.70;8.90;;;10.30;99.90;;;;;;6305303;22;20175;-70
2022/04/29 06:30:08;;;;;;;11.93;10.25;;;10.40;99.90;;;;;;6304961;22;20171;-70
2022/04/29 06:32:35;;;;;;;9.65;8.32;;;10.50;99.90;;;;;;6305111;22;20198;-70
2022/04/29 06:35:02;;;;;;;8.88;7.85;;;10.70;99.90;;;;;;6305879;22;20246;-71
2022/04/29 06:37:29;;;;;;;9.30;8.40;;;10.80;99.90;;;;;;6304982;22;20179;-70
2022/04/29 06:39:55;;;;;;;11.05;8.27;;;11.00;99.90;;;;;;6303463;22;20643;-70
2022/04/29 06:42:23;;;;;;;11.95;8.63;;;11.20;99.90;;;;;;6305165;22;20176;-71
2022/04/29 06:44:50;;;;;;;8.35;7.20;;;11.30;99.90;;;;;;6305455;22;20556;-71
2022/04/29 06:47:17;;;;;;;7.85;7.15;;;11.50;99.90;;;;;;6305052;22;20175;-70
2022/04/29 06:49:44;;;;;;;11.10;8.40;;;11.70;99.90;;;;;;6304918;22;20195;-71
2022/04/29 06:52:12;;;;;;;8.77;7.88;;;11.80;99.90;;;;;;6305697;22;20175;-70
2022/04/29 06:54:38;;;;;;;9.05;7.90;;;11.90;99.90;;;;;;6305038;22;20195;-70
2022/04/29 06:57:06;;;;;;;9.90;7.80;;;11.80;99.80;;;;;;6305866;22;20175;-70
2022/04/29 06:59:34;;;;;;;8.53;7.77;;;11.90;99.90;;;;;;6304322;22;20179;-71
2022/04/29 07:02:01;;;;;;;9.10;8.20;;;12.00;99.90;;;;;;6305491;22;20424;-70
2022/04/29 07:04:29;;;;;;;9.02;8.05;;;12.20;99.90;;;;;;6304868;22;20191;-71
2022/04/29 07:06:56;;;;;;;7.90;7.10;;;12.40;99.90;;;;;;6305494;22;20171;-71
2022/04/29 07:09:23;;;;;;;9.57;8.37;;;12.50;99.90;;;;;;6304428;22;20424;-71
2022/04/29 07:11:51;;;;;;;14.70;8.43;;;12.70;99.80;;;;;;6305019;22;20425;-71
2022/04/29 07:14:17;;;;;;;11.10;8.07;;;12.80;99.40;;;;;;6304959;22;20430;-70
2022/04/29 07:16:45;;;;;;;9.33;8.10;;;12.80;99.00;;;;;;6305028;22;20928;-70
2022/04/29 07:19:12;;;;;;;12.10;8.27;;;12.90;98.60;;;;;;6304649;22;20421;-71
2022/04/29 07:21:39;;;;;;;7.40;6.60;;;12.90;98.30;;;;;;6304655;22;20918;-70
2022/04/29 07:24:06;;;;;;;8.50;7.40;;;12.90;98.30;;;;;;6305150;22;20452;-71
2022/04/29 07:26:33;;;;;;;8.07;7.27;;;13.00;98.10;;;;;;6304924;22;20789;-71
2022/04/29 07:29:00;;;;;;;9.03;7.93;;;13.10;98.10;;;;;;6304114;22;20417;-70
2022/04/29 07:31:27;;;;;;;9.20;7.50;;;13.00;97.20;;;;;;6304923;22;20906;-71
2022/04/29 07:33:55;;;;;;;8.40;7.07;;;13.00;97.30;;;;;;6305035;22;20446;-70
2022/04/29 07:41:46;;;;;;;8.80;7.50;;;13.60;96.30;;;;;;6253180;22;20405;-71
2022/04/29 07:44:14;;;;;;;9.23;7.53;;;13.60;95.60;;;;;;6304478;22;20532;-71
2022/04/29 07:46:43;;;;;;;8.67;7.80;;;13.60;95.90;;;;;;6304070;22;20467;-70
2022/04/29 07:49:11;;;;;;;8.20;7.17;;;13.60;96.00;;;;;;6303782;22;20979;-70
2022/04/29 07:51:38;;;;;;;7.57;6.87;;;13.80;97.00;;;;;;6304580;22;20425;-71
2022/04/29 07:54:06;;;;;;;8.87;7.97;;;14.10;96.80;;;;;;6304549;22;20445;-71
2022/04/29 07:56:33;;;;;;;8.47;7.67;;;14.30;96.00;;;;;;6304867;22;20417;-70
2022/04/29 07:59:00;;;;;;;8.50;7.47;;;14.40;95.80;;;;;;6303160;22;20417;-71
2022/04/29 08:01:27;;;;;;;7.03;6.43;;;14.50;95.50;;;;;;6304628;22;20417;-71
2022/04/29 08:03:53;;;;;;;8.53;6.60;;;14.80;96.40;;;;;;6302512;22;20460;-71
2022/04/29 08:06:22;;;;;;;6.70;6.00;;;15.00;96.70;;;;;;6304313;22;20421;-71
2022/04/29 08:08:49;;;;;;;8.60;7.33;;;15.20;95.60;;;;;;6297912;22;20457;-69
2022/04/29 08:11:25;;;;;;;7.53;6.77;;;15.20;94.40;;;;;;6304719;22;20938;-70
2022/04/29 08:13:52;;;;;;;8.80;7.20;;;15.30;94.50;;;;;;6303814;22;20437;-69
2022/04/29 08:16:18;;;;;;;9.33;7.70;;;15.30;94.10;;;;;;6304760;22;20409;-69
2022/04/29 08:18:46;;;;;;;8.27;6.27;;;15.30;94.80;;;;;;6303906;22;20779;-69
2022/04/29 08:21:13;;;;;;;6.57;5.63;;;15.40;94.60;;;;;;6304166;22;20906;-69
2022/04/29 08:23:41;;;;;;;7.53;6.80;;;15.70;94.20;;;;;;6304665;22;20437;-69
2022/04/29 08:26:08;;;;;;;8.40;6.63;;;15.90;94.30;;;;;;6303822;22;20441;-70
2022/04/29 08:28:34;;;;;;;8.03;7.30;;;16.20;93.80;;;;;;6303860;22;20726;-70
2022/04/29 08:31:01;;;;;;;11.00;6.90;;;16.40;92.90;;;;;;6304363;22;20421;-68
2022/04/29 08:33:28;;;;;;;8.90;6.20;;;16.70;93.10;;;;;;6304919;22;20751;-70
2022/04/29 08:35:55;;;;;;;9.30;6.70;;;16.90;92.00;;;;;;6304420;22;20417;-70
2022/04/29 08:38:22;;;;;;;7.23;6.30;;;17.30;92.10;;;;;;6303956;22;20524;-70
2022/04/29 08:40:50;;;;;;;8.37;6.53;;;17.50;89.90;;;;;;6304503;22;20418;-70
2022/04/29 08:43:17;;;;;;;9.00;7.00;;;17.70;90.40;;;;;;6304016;22;20447;-69
2022/04/29 08:45:44;;;;;;;7.60;6.00;;;18.10;89.90;;;;;;6304514;22;20436;-71
2022/04/29 08:48:11;;;;;;;6.63;6.00;;;18.10;89.70;;;;;;6303551;22;20428;-70
2022/04/29 08:50:38;;;;;;;8.57;5.80;;;18.40;88.60;;;;;;6304653;22;20417;-70
2022/04/29 08:53:05;;;;;;;7.43;6.70;;;18.70;86.10;;;;;;6303843;22;20924;-70
2022/04/29 09:01:05;;;;;;;6.90;5.07;;;19.80;85.50;;;;;;6304379;22;20392;-71
2022/04/29 09:03:32;;;;;;;7.07;6.13;;;20.20;86.20;;;;;;6304419;22;20417;-69
2022/04/29 09:05:59;;;;;;;6.80;5.07;;;20.50;84.20;;;;;;6304221;22;20444;-71
2022/04/29 09:08:27;;;;;;;6.47;5.77;;;20.80;82.50;;;;;;6303740;22;20439;-71
2022/04/29 09:10:56;;;;;;;8.30;5.27;;;21.10;82.60;;;;;;6303877;22;20425;-70
2022/04/29 09:13:25;;;;;;;6.00;5.40;;;21.30;78.00;;;;;;6305382;22;20774;-69
2022/04/29 09:15:54;;;;;;;5.10;4.70;;;21.70;82.90;;;;;;6305916;22;20413;-71
2022/04/29 09:18:35;;;;;;;7.60;5.40;;;22.10;77.50;;;;;;6305674;22;20421;-71
2022/04/29 09:21:05;;;;;;;6.10;5.50;;;22.60;78.20;;;;;;6305978;22;20417;-70
2022/04/29 09:23:35;;;;;;;6.50;5.87;;;22.90;79.20;;;;;;6306194;22;20405;-69
2022/04/29 09:26:05;;;;;;;5.87;4.87;;;23.00;74.00;;;;;;6305359;22;20437;-70
2022/04/29 09:28:34;;;;;;;5.70;5.10;;;23.10;74.10;;;;;;6305600;22;20405;-70
2022/04/29 09:31:02;;;;;;;5.73;4.70;;;22.80;73.00;;;;;;6305937;22;20903;-71
2022/04/29 09:33:30;;;;;;;6.73;5.93;;;22.20;71.70;;;;;;6306143;22;20425;-70
2022/04/29 09:35:57;;;;;;;5.40;4.90;;;21.60;73.60;;;;;;6305761;22;20413;-71
2022/04/29 09:41:09;;;;;;;4.93;4.43;;;21.50;73.50;;;;;;6305602;22;20455;-70
2022/04/29 09:43:39;;;;;;;6.00;5.40;;;21.20;75.40;;;;;;6305660;22;20894;-70
2022/04/29 09:46:13;;;;;;;5.50;5.00;;;21.20;72.10;;;;;;6305817;22;20444;-70
2022/04/29 09:48:58;;;;;;;5.30;4.80;;;20.90;73.80;;;;;;6305857;22;20417;-70
2022/04/29 09:51:48;;;;;;;8.90;5.30;;;20.40;72.90;;;;;;6305891;22;20926;-70
2022/04/29 09:54:21;;;;;;;5.00;4.50;;;20.00;73.80;;;;;;6305502;22;20444;-69
2022/04/29 09:57:03;;;;;;;4.67;4.27;;;19.50;74.20;;;;;;6305950;22;20402;-69
2022/04/29 09:59:33;;;;;;;5.00;4.50;;;19.20;75.10;;;;;;6305249;22;20409;-70
2022/04/29 10:02:01;;;;;;;4.80;4.30;;;19.10;76.20;;;;;;6306220;22;20402;-70
2022/04/29 10:04:31;;;;;;;5.40;4.90;;;19.50;77.00;;;;;;6305833;22;20437;-70
2022/04/29 10:06:58;;;;;;;5.27;4.77;;;20.30;77.40;;;;;;6305767;22;20774;-71
2022/04/29 10:09:30;;;;;;;5.80;4.70;;;21.00;76.50;;;;;;6304725;22;20429;-69
2022/04/29 10:11:58;;;;;;;5.07;4.57;;;21.20;72.60;;;;;;6305655;22;20402;-70
2022/04/29 10:14:28;;;;;;;6.03;5.43;;;21.10;73.70;;;;;;6305680;22;20829;-70
2022/04/29 10:22:33;;;;;;;5.13;4.33;;;20.60;73.10;;;;;;6305791;22;20459;-71
2022/04/29 10:25:05;;;;;;;5.33;4.27;;;20.90;75.20;;;;;;6304870;22;20445;-71
2022/04/29 10:27:33;;;;;;;5.03;4.53;;;21.10;71.80;;;;;;6306044;22;20451;-68
2022/04/29 10:30:00;;;;;;;4.90;4.40;;;20.90;71.80;;;;;;6304432;22;20944;-69
2022/04/29 10:32:28;;;;;;;5.00;4.10;;;20.70;75.10;;;;;;6305177;22;20418;-70
2022/04/29 10:34:55;;;;;;;5.90;4.57;;;20.90;74.70;;;;;;6305283;22;20437;-71
2022/04/29 10:37:32;;;;;;;34.40;11.80;;;21.40;76.40;;;;;;6305168;22;20932;-70
2022/04/29 10:40:10;;;;;;;24.83;10.43;;;22.00;73.50;;;;;;6304655;22;20454;-71
2022/04/29 10:43:06;;;;;;;7.37;3.83;;;22.00;72.10;;;;;;6305854;22;20512;-70
2022/04/29 10:45:32;;;;;;;5.60;4.57;;;21.80;70.00;;;;;;6305086;22;20473;-70
2022/04/29 10:48:30;;;;;;;4.17;3.77;;;21.30;70.50;;;;;;6304676;22;20424;-69
2022/04/29 10:50:57;;;;;;;3.83;3.40;;;21.10;69.30;;;;;;6304920;22;20417;-70
2022/04/29 10:53:25;;;;;;;4.33;3.93;;;21.40;69.30;;;;;;6305372;22;20786;-70
2022/04/29 10:55:51;;;;;;;3.70;3.40;;;22.00;68.80;;;;;;6305118;22;20414;-69
2022/04/29 10:58:23;;;;;;;4.20;3.40;;;22.30;70.00;;;;;;6304086;22;20417;-70
2022/04/29 11:00:56;;;;;;;4.33;3.20;;;23.20;71.80;;;;;;6305216;22;20417;-70
2022/04/29 11:03:38;;;;;;;3.60;3.30;;;24.30;71.70;;;;;;6304997;22;20421;-70
2022/04/29 11:06:10;;;;;;;5.07;3.63;;;25.00;66.20;;;;;;6305325;22;20761;-69
2022/04/29 11:08:37;;;;;;;3.50;3.20;;;24.80;64.60;;;;;;6304688;22;20420;-69
2022/04/29 11:11:04;;;;;;;3.70;3.40;;;24.50;65.80;;;;;;6304648;22;20421;-69
2022/04/29 11:13:35;;;;;;;4.90;3.77;;;24.40;66.00;;;;;;6305115;22;20482;-69
2022/04/29 11:16:10;;;;;;;3.80;3.47;;;24.20;64.70;;;;;;6304473;22;20886;-70
2022/04/29 11:18:40;;;;;;;5.50;3.83;;;24.00;68.20;;;;;;6304258;22;20417;-69
2022/04/29 11:26:52;;;;;;;5.50;3.80;;;24.10;65.50;;;;;;6294995;22;20487;-70
2022/04/29 11:29:19;;;;;;;3.93;3.63;;;23.10;65.60;;;;;;6305000;22;20441;-70
2022/04/29 11:31:46;;;;;;;4.00;3.70;;;22.60;67.00;;;;;;6304857;22;20789;-70
2022/04/29 11:34:16;;;;;;;4.40;3.30;;;22.10;70.90;;;;;;6304773;22;20433;-70
2022/04/29 11:36:44;;;;;;;4.80;3.70;;;22.00;70.40;;;;;;6304494;22;20421;-70
2022/04/29 11:39:15;;;;;;;3.83;3.53;;;22.30;70.80;;;;;;6303709;22;20422;-69
2022/04/29 11:41:53;;;;;;;3.93;3.60;;;22.50;68.50;;;;;;6304875;22;20402;-69
2022/04/29 11:44:33;;;;;;;3.87;3.47;;;22.60;67.40;;;;;;6304740;22;20441;-70
2022/04/29 11:47:00;;;;;;;4.43;4.03;;;22.70;70.10;;;;;;6304191;22;20960;-70
2022/04/29 11:49:33;;;;;;;5.90;4.03;;;22.60;67.20;;;;;;6304156;22;20647;-69
2022/04/29 11:52:17;;;;;;;4.90;3.60;;;22.50;69.80;;;;;;6304746;22;20476;-70
2022/04/29 11:54:50;;;;;;;3.97;3.67;;;22.70;71.70;;;;;;6304768;22;20433;-69
2022/04/29 11:57:18;;;;;;;4.03;3.63;;;22.50;69.00;;;;;;6305153;22;20489;-69
2022/04/29 11:59:45;;;;;;;6.20;4.27;;;21.70;68.10;;;;;;6303745;22;20413;-69
2022/04/29 12:02:15;;;;;;;5.60;4.60;;;21.20;69.80;;;;;;6304615;22;20417;-70
2022/04/29 12:04:54;;;;;;;4.53;4.13;;;21.10;71.20;;;;;;6304783;22;20433;-69
2022/04/29 12:07:21;;;;;;;4.93;4.20;;;21.00;68.90;;;;;;6304923;22;20432;-68
2022/04/29 12:09:48;;;;;;;3.80;3.50;;;20.90;70.00;;;;;;6303413;22;20479;-70
2022/04/29 12:12:26;;;;;;;4.43;4.03;;;20.70;73.20;;;;;;6305159;22;20436;-70
2022/04/29 12:14:53;;;;;;;3.70;3.40;;;20.90;72.10;;;;;;6304792;22;20473;-69
2022/04/29 12:17:21;;;;;;;3.50;3.20;;;21.10;70.50;;;;;;6305010;22;20410;-69
2022/04/29 12:19:58;;;;;;;3.70;3.40;;;21.20;71.80;;;;;;6304204;22;20413;-68
2022/04/29 12:22:32;;;;;;;5.40;4.13;;;21.10;69.70;;;;;;6304933;22;20402;-69
2022/04/29 12:24:59;;;;;;;4.47;4.07;;;21.20;72.10;;;;;;6304618;22;20437;-70
2022/04/29 12:27:29;;;;;;;4.17;3.80;;;21.20;69.70;;;;;;6304766;22;20438;-70
2022/04/29 12:35:29;;;;;;;4.17;3.77;;;21.20;72.60;;;;;;6314850;22;20423;-69
2022/04/29 12:37:56;;;;;;;4.90;4.50;;;21.90;72.50;;;;;;6304184;22;20410;-68
2022/04/29 12:40:32;;;;;;;4.73;4.33;;;22.60;70.90;;;;;;6304489;22;20409;-68
2022/04/29 12:43:12;;;;;;;5.50;4.90;;;23.20;71.40;;;;;;6304149;22;20393;-69
2022/04/29 12:45:38;;;;;;;4.60;4.20;;;23.10;67.30;;;;;;6304310;22;20458;-70
2022/04/29 12:48:07;;;;;;;4.80;4.30;;;23.10;67.90;;;;;;6305817;22;20440;-70
2022/04/29 12:50:39;;;;;;;5.00;4.60;;;23.20;66.50;;;;;;6306872;22;20474;-69
2022/04/29 12:53:08;;;;;;;4.83;4.30;;;22.90;65.00;;;;;;6306075;22;20431;-70
2022/04/29 12:55:37;;;;;;;5.80;3.70;;;22.70;66.40;;;;;;6306455;22;20443;-70
2022/04/29 12:58:06;;;;;;;5.37;4.50;;;23.00;69.80;;;;;;6305999;22;20929;-70
2022/04/29 13:00:33;;;;;;;4.83;4.43;;;23.50;69.10;;;;;;6306505;22;20417;-69
2022/04/29 13:03:01;;;;;;;5.00;4.60;;;24.00;69.60;;;;;;6306153;22;20933;-70
2022/04/29 13:05:28;;;;;;;4.63;4.23;;;24.00;66.60;;;;;;6306348;22;20750;-70
2022/04/29 13:07:56;;;;;;;4.80;4.37;;;24.10;67.80;;;;;;6305968;22;20902;-70
2022/04/29 13:10:23;;;;;;;5.20;4.70;;;24.60;66.80;;;;;;6305758;22;20428;-68
2022/04/29 13:12:50;;;;;;;5.27;4.47;;;25.00;67.30;;;;;;6306589;22;20414;-70
2022/04/29 13:15:17;;;;;;;5.67;4.90;;;25.00;67.20;;;;;;6306584;22;20738;-70
2022/04/29 13:17:44;;;;;;;5.20;4.70;;;25.30;65.20;;;;;;6306261;22;20405;-70
2022/04/29 13:20:12;;;;;;;5.70;5.10;;;25.20;64.60;;;;;;6305752;22;20413;-70
2022/04/29 13:22:39;;;;;;;5.73;5.20;;;24.90;64.50;;;;;;6306212;22;20416;-70
2022/04/29 13:25:09;;;;;;;4.73;4.43;;;24.60;65.60;;;;;;6306025;22;20524;-70
2022/04/29 13:27:37;;;;;;;4.60;4.03;;;24.40;66.80;;;;;;6307031;22;20436;-70
2022/04/29 13:30:05;;;;;;;5.03;4.63;;;24.70;67.60;;;;;;6306813;22;20794;-71
2022/04/29 13:32:32;;;;;;;4.80;4.40;;;24.70;66.60;;;;;;6306727;22;20418;-70
2022/04/29 13:34:58;;;;;;;5.70;5.30;;;24.50;66.40;;;;;;6306539;22;20437;-70